createdAt,value
2022-09-26T00:00:33.706Z,96584.69
2022-09-26T00:05:37.050Z,96587.97
2022-09-26T00:10:38.691Z,96592.22
2022-09-26T00:15:40.346Z,96583.38
2022-09-26T00:20:41.988Z,96586.13
2022-09-26T00:25:50.939Z,96570.06
2022-09-26T00:30:53.077Z,96575.50
2022-09-26T00:35:55.811Z,96567.25
2022-09-26T00:40:57.964Z,96566.59
2022-09-26T00:46:05.094Z,96562.53
2022-09-26T00:51:07.670Z,96555.97
2022-09-26T00:56:15.991Z,96556.56
2022-09-26T01:01:18.812Z,96551.69
2022-09-26T01:06:21.451Z,96533.19
2022-09-26T01:11:23.812Z,96531.84
2022-09-26T01:16:25.657Z,96528.97
2022-09-26T01:21:37.651Z,96526.00
2022-09-26T01:27:07.722Z,96525.41
2022-09-26T01:32:48.721Z,96522.78
2022-09-26T01:38:09.393Z,96527.47
2022-09-26T01:43:34.159Z,96527.69
2022-09-26T01:48:44.407Z,96529.75
2022-09-26T01:53:53.175Z,96529.34
2022-09-26T01:58:56.861Z,96523.63
2022-09-26T02:04:06.106Z,96518.88
2022-09-26T02:09:12.705Z,96528.53
2022-09-26T02:14:25.617Z,96520.59
2022-09-26T02:20:02.367Z,96515.81
2022-09-26T02:25:05.902Z,96519.53
2022-09-26T02:30:08.602Z,96519.75
2022-09-26T02:35:34.612Z,96518.09
2022-09-26T02:41:02.977Z,96520.94
2022-09-26T02:46:30.186Z,96528.06
2022-09-26T02:52:08.861Z,96515.47
2022-09-26T02:57:39.948Z,96508.91
2022-09-26T03:02:50.950Z,96505.66
2022-09-26T03:08:05.448Z,96509.50
2022-09-26T03:13:13.247Z,96507.28
2022-09-26T03:18:20.593Z,96502.91
2022-09-26T03:23:26.972Z,96498.13
2022-09-26T03:28:37.872Z,96500.59
2022-09-26T03:33:40.879Z,96498.66
2022-09-26T03:38:42.506Z,96495.09
2022-09-26T03:43:58.982Z,96487.16
2022-09-26T03:49:13.289Z,96477.78
2022-09-26T03:54:15.598Z,96480.75
2022-09-26T03:59:17.492Z,96472.50
2022-09-26T04:04:20.603Z,96462.53
2022-09-26T04:09:23.556Z,96461.63
2022-09-26T04:14:26.578Z,96453.06
2022-09-26T04:19:31.811Z,96465.19
2022-09-26T04:24:35.565Z,96460.91
2022-09-26T04:29:37.402Z,96467.34
2022-09-26T04:35:02.177Z,96460.09
2022-09-26T04:40:04.634Z,96471.84
2022-09-26T04:45:09.001Z,96462.06
2022-09-26T04:50:10.786Z,96460.94
2022-09-26T04:55:13.114Z,96470.75
2022-09-26T05:00:15.857Z,96467.06
2022-09-26T05:05:17.677Z,96463.91
2022-09-26T05:10:19.508Z,96461.41
2022-09-26T05:15:29.060Z,96456.66
2022-09-26T05:20:31.767Z,96469.78
2022-09-26T05:25:59.253Z,96458.25
2022-09-26T05:31:01.445Z,96462.56
2022-09-26T05:36:05.587Z,96471.09
2022-09-26T05:41:07.520Z,96476.69
2022-09-26T05:46:11.191Z,96466.38
2022-09-26T05:51:21.090Z,96469.94
2022-09-26T05:56:23.547Z,96460.34
2022-09-26T06:01:38.688Z,96445.59
2022-09-26T06:06:52.981Z,96469.91
2022-09-26T06:11:54.706Z,96465.53
2022-09-26T06:16:56.550Z,96460.09
2022-09-26T06:21:58.178Z,96455.81
2022-09-26T06:27:00.059Z,96454.63
2022-09-26T06:32:01.826Z,96455.06
2022-09-26T06:37:32.490Z,96443.47
2022-09-26T06:42:38.077Z,96443.59
2022-09-26T06:47:54.655Z,96446.78
2022-09-26T06:53:10.500Z,96455.28
2022-09-26T06:58:12.298Z,96449.22
2022-09-26T07:03:29.552Z,96442.09
2022-09-26T07:14:41.919Z,96449.88
2022-09-26T07:19:53.651Z,96448.53
2022-09-26T07:25:21.721Z,96440.81
2022-09-26T07:30:23.877Z,96430.44
2022-09-26T07:35:44.398Z,96443.47
2022-09-26T07:40:46.308Z,96443.91
2022-09-26T07:46:09.694Z,96439.88
2022-09-26T07:51:12.558Z,96443.16
2022-09-26T07:56:23.556Z,96444.31
2022-09-26T08:01:38.188Z,96451.09
2022-09-26T08:07:06.057Z,96456.81
2022-09-26T08:12:14.432Z,96456.38
2022-09-26T08:17:34.950Z,96448.13
2022-09-26T08:22:37.859Z,96438.28
2022-09-26T08:27:43.620Z,96441.47
2022-09-26T08:32:54.066Z,96435.69
2022-09-26T08:38:00.879Z,96437.44
2022-09-26T08:43:42.941Z,96440.19
2022-09-26T08:49:39.510Z,96425.31
2022-09-26T08:54:44.487Z,96415.81
2022-09-26T08:59:47.089Z,96414.88
2022-09-26T09:05:10.292Z,96413.00
2022-09-26T09:10:22.689Z,96406.00
2022-09-26T09:15:46.287Z,96401.69
2022-09-26T09:21:13.368Z,96400.00
2022-09-26T09:32:31.163Z,96386.25
2022-09-26T09:37:52.017Z,96375.59
2022-09-26T09:43:13.449Z,96383.75
2022-09-26T09:48:15.525Z,96385.47
2022-09-26T09:53:32.304Z,96374.69
2022-09-26T09:59:04.312Z,96367.91
2022-09-26T10:04:37.428Z,96370.97
2022-09-26T10:09:41.407Z,96364.56
2022-09-26T10:15:07.542Z,96366.81
2022-09-26T10:20:39.072Z,96355.59
2022-09-26T10:25:48.239Z,96343.19
2022-09-26T10:31:01.449Z,96344.69
2022-09-26T10:36:31.345Z,96333.53
2022-09-26T10:41:39.081Z,96338.53
2022-09-26T10:46:45.295Z,96327.50
2022-09-26T10:52:18.693Z,96335.03
2022-09-26T10:57:33.621Z,96322.03
2022-09-26T11:02:38.134Z,96311.53
2022-09-26T11:07:43.853Z,96315.56
2022-09-26T11:13:18.797Z,96316.38
2022-09-26T11:18:33.181Z,96314.56
2022-09-26T11:23:39.033Z,96298.88
2022-09-26T11:29:08.862Z,96295.44
2022-09-26T11:34:28.831Z,96293.81
2022-09-26T11:39:59.135Z,96281.50
2022-09-26T11:45:09.157Z,96272.88
2022-09-26T11:50:51.513Z,96260.88
2022-09-26T11:56:19.887Z,96242.88
2022-09-26T12:01:55.823Z,96237.34
2022-09-26T12:07:08.424Z,96227.75
2022-09-26T12:12:41.404Z,96226.13
2022-09-26T12:18:04.115Z,96213.63
2022-09-26T12:23:46.016Z,96210.06
2022-09-26T12:29:06.021Z,96196.09
2022-09-26T12:34:18.981Z,96185.69
2022-09-26T12:39:41.690Z,96171.22
2022-09-26T12:45:02.508Z,96156.38
2022-09-26T12:50:30.785Z,96155.63
2022-09-26T12:55:56.971Z,96157.38
2022-09-26T13:01:29.772Z,96143.59
2022-09-26T13:07:18.879Z,96134.66
2022-09-26T13:12:47.752Z,96113.63
2022-09-26T13:17:57.843Z,96106.97
2022-09-26T13:23:18.119Z,96098.91
2022-09-26T13:28:24.089Z,96094.59
2022-09-26T13:33:28.686Z,96100.38
2022-09-26T13:38:53.165Z,96098.56
2022-09-26T13:44:06.765Z,96098.72
2022-09-26T13:49:33.800Z,96098.59
2022-09-26T13:54:54.126Z,96087.91
2022-09-26T13:59:55.772Z,96085.94
2022-09-26T14:05:03.592Z,96078.16
2022-09-26T14:10:17.941Z,96067.97
2022-09-26T14:15:48.074Z,96067.72
2022-09-26T14:21:05.478Z,96046.41
2022-09-26T14:26:21.573Z,96037.50
2022-09-26T14:31:26.286Z,96031.13
2022-09-26T14:36:32.478Z,96029.44
2022-09-26T14:41:36.430Z,96024.06
2022-09-26T14:46:41.336Z,96017.50
2022-09-26T14:51:48.982Z,96018.19
2022-09-26T14:57:02.151Z,95999.81
2022-09-26T15:02:26.026Z,95989.34
2022-09-26T15:07:33.737Z,95995.22
2022-09-26T15:12:48.019Z,95990.72
2022-09-26T15:17:55.822Z,95991.38
2022-09-26T15:22:58.867Z,95991.56
2022-09-26T15:28:01.506Z,95993.19
2022-09-26T15:33:04.194Z,95986.75
2022-09-26T15:38:12.935Z,95986.38
2022-09-26T15:43:21.785Z,95987.44
2022-09-26T15:48:32.579Z,95994.31
2022-09-26T15:53:39.774Z,95980.25
2022-09-26T15:58:53.352Z,95980.66
2022-09-26T16:03:58.728Z,95979.19
2022-09-26T16:09:05.969Z,95974.22
2022-09-26T16:14:23.148Z,95963.69
2022-09-26T16:19:43.180Z,95962.78
2022-09-26T16:24:44.870Z,95960.75
2022-09-26T16:29:51.815Z,95968.56
2022-09-26T16:34:53.499Z,95964.34
2022-09-26T16:39:59.336Z,95973.69
2022-09-26T16:45:04.828Z,95973.78
2022-09-26T16:50:33.562Z,95980.34
2022-09-26T16:55:36.308Z,95985.72
2022-09-26T17:00:58.853Z,95971.94
2022-09-26T17:06:00.598Z,95964.66
2022-09-26T17:11:04.243Z,95977.56
2022-09-26T17:16:07.358Z,95979.28
2022-09-26T17:21:09.061Z,95974.41
2022-09-26T17:26:23.926Z,95969.28
2022-09-26T17:31:26.945Z,95974.56
2022-09-26T17:36:29.615Z,95968.06
2022-09-26T17:41:34.356Z,95964.75
2022-09-26T17:46:38.349Z,95972.13
2022-09-26T17:51:40.646Z,95967.41
2022-09-26T17:56:42.382Z,95981.84
2022-09-26T18:01:46.447Z,95980.25
2022-09-26T18:06:48.106Z,95973.59
2022-09-26T18:11:59.612Z,95971.25
2022-09-26T18:17:02.085Z,95970.00
2022-09-26T18:22:03.963Z,95970.72
2022-09-26T18:27:07.283Z,95964.50
2022-09-26T18:32:25.792Z,95960.88
2022-09-26T18:37:27.495Z,95963.00
2022-09-26T18:42:29.134Z,95954.56
2022-09-26T18:47:45.080Z,95961.13
2022-09-26T18:52:46.771Z,95963.25
2022-09-26T18:58:06.950Z,95957.78
2022-09-26T19:03:08.717Z,95968.50
2022-09-26T19:08:28.118Z,95958.50
2022-09-26T19:13:31.498Z,95959.97
2022-09-26T19:18:33.525Z,95957.41
2022-09-26T19:23:36.660Z,95949.16
2022-09-26T19:28:38.814Z,95943.75
2022-09-26T19:33:45.419Z,95934.06
2022-09-26T19:38:47.125Z,95932.16
2022-09-26T19:43:48.818Z,95942.53
2022-09-26T19:48:50.549Z,95923.16
2022-09-26T19:53:52.301Z,95919.25
2022-09-26T19:58:54.084Z,95912.03
2022-09-26T20:03:55.830Z,95898.59
2022-09-26T20:09:02.167Z,95883.25
2022-09-26T20:14:22.704Z,95871.72
2022-09-26T20:19:30.400Z,95870.59
2022-09-26T20:24:33.429Z,95869.94
2022-09-26T20:29:56.633Z,95859.28
2022-09-26T20:35:00.393Z,95852.97
2022-09-26T20:40:22.639Z,95845.19
2022-09-26T20:45:31.822Z,95835.66
2022-09-26T20:50:37.020Z,95828.69
2022-09-26T20:55:43.239Z,95818.00
2022-09-26T21:00:46.104Z,95816.41
2022-09-26T21:05:47.848Z,95812.84
2022-09-26T21:10:49.693Z,95807.16
2022-09-26T21:15:52.813Z,95796.28
2022-09-26T21:20:59.358Z,95786.63
2022-09-26T21:26:25.050Z,95769.94
2022-09-26T21:31:32.259Z,95770.44
2022-09-26T21:36:39.319Z,95768.19
2022-09-26T21:41:41.095Z,95766.72
2022-09-26T21:46:42.716Z,95754.28
2022-09-26T21:51:49.632Z,95736.47
2022-09-26T21:56:55.710Z,95725.47
2022-09-26T22:01:57.560Z,95732.91
2022-09-26T22:06:59.340Z,95717.38
2022-09-26T22:12:01.491Z,95703.97
2022-09-26T22:17:03.124Z,95702.34
2022-09-26T22:22:04.832Z,95678.91
2022-09-26T22:27:06.508Z,95676.31
2022-09-26T22:32:08.595Z,95663.38
2022-09-26T22:37:10.225Z,95651.59
2022-09-26T22:42:12.134Z,95645.09
2022-09-26T22:47:13.835Z,95643.66
2022-09-26T22:52:15.474Z,95638.00
2022-09-26T22:57:17.482Z,95627.00
2022-09-26T23:02:19.216Z,95623.09
2022-09-26T23:07:21.129Z,95615.19
2022-09-26T23:12:23.136Z,95614.41
2022-09-26T23:17:25.080Z,95612.09
2022-09-26T23:22:26.698Z,95618.72
2022-09-26T23:27:28.523Z,95614.69
2022-09-26T23:32:30.233Z,95605.63
2022-09-26T23:37:32.498Z,95605.00
2022-09-26T23:42:34.281Z,95598.03
2022-09-26T23:47:35.949Z,95593.16
2022-09-26T23:52:37.734Z,95574.25
2022-09-26T23:57:39.512Z,95563.28
